createdAt,value
2023-02-09T00:00:02.055Z,94076.00
2023-02-09T00:01:00.275Z,94076.00
2023-02-09T00:02:00.386Z,94076.00
2023-02-09T00:03:00.477Z,94080.00
2023-02-09T00:04:00.517Z,94082.00
2023-02-09T00:05:00.606Z,94084.00
2023-02-09T00:06:00.608Z,94082.00
2023-02-09T00:07:00.901Z,94086.00
2023-02-09T00:08:00.720Z,94084.00
2023-02-09T00:09:00.786Z,94084.00
2023-02-09T00:10:00.842Z,94084.00
2023-02-09T00:11:00.876Z,94084.00
2023-02-09T00:12:00.949Z,94086.00
2023-02-09T00:13:01.004Z,94088.00
2023-02-09T00:14:01.125Z,94082.00
2023-02-09T00:15:01.126Z,94088.00
2023-02-09T00:16:01.212Z,94088.00
2023-02-09T00:17:01.247Z,94088.00
2023-02-09T00:18:01.300Z,94090.00
2023-02-09T00:19:01.365Z,94088.00
2023-02-09T00:20:01.428Z,94090.00
2023-02-09T00:21:01.492Z,94090.00
2023-02-09T00:22:01.584Z,94090.00
2023-02-09T00:23:01.615Z,94092.00
2023-02-09T00:24:01.674Z,94095.00
2023-02-09T00:25:01.730Z,94095.00
2023-02-09T00:26:01.794Z,94094.00
2023-02-09T00:27:01.858Z,94092.00
2023-02-09T00:28:01.932Z,94090.00
2023-02-09T00:29:01.990Z,94090.00
2023-02-09T00:30:02.062Z,94092.00
2023-02-09T00:31:02.109Z,94092.00
2023-02-09T00:32:02.223Z,94090.00
2023-02-09T00:33:02.235Z,94088.00
2023-02-09T00:34:02.324Z,94088.00
2023-02-09T00:35:02.370Z,94090.00
2023-02-09T00:36:02.425Z,94090.00
2023-02-09T00:37:02.501Z,94086.00
2023-02-09T00:38:02.566Z,94086.00
2023-02-09T00:39:02.625Z,94086.00
2023-02-09T00:40:02.705Z,94086.00
2023-02-09T00:41:02.768Z,94092.00
2023-02-09T00:42:02.850Z,94084.00
2023-02-09T00:43:02.925Z,94086.00
2023-02-09T00:44:02.968Z,94084.00
2023-02-09T00:45:03.039Z,94086.00
2023-02-09T00:46:03.773Z,94086.00
2023-02-09T00:47:03.169Z,94084.00
2023-02-09T00:48:03.265Z,94086.00
2023-02-09T00:49:03.314Z,94086.00
2023-02-09T00:50:03.377Z,94086.00
2023-02-09T00:51:03.451Z,94092.00
2023-02-09T00:52:03.545Z,94090.00
2023-02-09T00:53:03.652Z,94088.00
2023-02-09T00:54:03.666Z,94094.00
2023-02-09T00:55:03.733Z,94094.00
2023-02-09T00:56:03.790Z,94088.00
2023-02-09T00:57:03.867Z,94084.00
2023-02-09T00:58:03.940Z,94092.00
2023-02-09T00:59:04.024Z,94088.00
2023-02-09T01:00:04.076Z,94090.00
2023-02-09T01:01:04.165Z,94088.00
2023-02-09T01:02:04.237Z,94082.00
2023-02-09T01:03:04.277Z,94090.00
2023-02-09T01:04:04.363Z,94090.00
2023-02-09T01:05:04.485Z,94088.00
2023-02-09T01:06:04.524Z,94084.00
2023-02-09T01:07:04.665Z,94086.00
2023-02-09T01:08:04.632Z,94084.00
2023-02-09T01:09:04.692Z,94082.00
2023-02-09T01:10:04.754Z,94080.00
2023-02-09T01:11:05.224Z,94080.00
2023-02-09T01:12:05.719Z,94080.00
2023-02-09T01:13:04.972Z,94084.00
2023-02-09T01:14:05.048Z,94082.00
2023-02-09T01:15:05.114Z,94078.00
2023-02-09T01:16:05.168Z,94084.00
2023-02-09T01:17:05.251Z,94082.00
2023-02-09T01:18:05.292Z,94076.00
2023-02-09T01:19:05.368Z,94076.00
2023-02-09T01:20:05.432Z,94078.00
2023-02-09T01:21:05.504Z,94074.00
2023-02-09T01:22:05.565Z,94078.00
2023-02-09T01:23:05.631Z,94076.00
2023-02-09T01:24:05.709Z,94072.00
2023-02-09T01:25:05.758Z,94076.00
2023-02-09T01:26:05.830Z,94080.00
2023-02-09T01:27:05.900Z,94076.00
2023-02-09T01:28:06.033Z,94074.00
2023-02-09T01:29:06.039Z,94070.00
2023-02-09T01:30:06.110Z,94078.00
2023-02-09T01:31:06.369Z,94068.00
2023-02-09T01:32:06.273Z,94076.00
2023-02-09T01:33:06.313Z,94078.00
2023-02-09T01:34:06.368Z,94072.00
2023-02-09T01:35:06.445Z,94076.00
2023-02-09T01:36:06.584Z,94074.00
2023-02-09T01:37:06.584Z,94072.00
2023-02-09T01:38:06.663Z,94074.00
2023-02-09T01:39:06.729Z,94078.00
2023-02-09T01:40:06.799Z,94070.00
2023-02-09T01:41:06.871Z,94070.00
2023-02-09T01:42:07.787Z,94064.00
2023-02-09T01:43:07.031Z,94066.00
2023-02-09T01:44:07.094Z,94066.00
2023-02-09T01:45:07.179Z,94062.00
2023-02-09T01:46:07.249Z,94064.00
2023-02-09T01:47:07.315Z,94066.00
2023-02-09T01:48:07.374Z,94070.00
2023-02-09T01:49:07.481Z,94066.00
2023-02-09T01:50:07.527Z,94066.00
2023-02-09T01:51:07.599Z,94062.00
2023-02-09T01:52:07.682Z,94054.00
2023-02-09T01:53:07.835Z,94050.00
2023-02-09T01:54:07.819Z,94054.00
2023-02-09T01:55:07.891Z,94060.00
2023-02-09T01:56:07.963Z,94064.00
2023-02-09T01:57:08.034Z,94054.00
2023-02-09T01:58:08.147Z,94048.00
2023-02-09T01:59:08.179Z,94056.00
2023-02-09T02:00:08.275Z,94062.00
2023-02-09T02:01:08.344Z,94060.00
2023-02-09T02:02:09.275Z,94058.00
2023-02-09T02:03:08.484Z,94054.00
2023-02-09T02:04:08.552Z,94052.00
2023-02-09T02:05:08.606Z,94048.00
2023-02-09T02:06:08.697Z,94054.00
2023-02-09T02:07:08.766Z,94054.00
2023-02-09T02:08:08.846Z,94056.00
2023-02-09T02:09:08.957Z,94058.00
2023-02-09T02:10:09.004Z,94054.00
2023-02-09T02:11:09.766Z,94052.00
2023-02-09T02:12:09.146Z,94050.00
2023-02-09T02:13:09.247Z,94052.00
2023-02-09T02:14:09.307Z,94052.00
2023-02-09T02:15:09.378Z,94054.00
2023-02-09T02:16:09.473Z,94052.00
2023-02-09T02:17:09.549Z,94050.00
2023-02-09T02:18:09.630Z,94048.00
2023-02-09T02:19:09.699Z,94050.00
2023-02-09T02:20:10.755Z,94048.00
2023-02-09T02:21:09.844Z,94047.00
2023-02-09T02:22:09.917Z,94047.00
2023-02-09T02:23:10.001Z,94048.00
2023-02-09T02:24:10.064Z,94041.00
2023-02-09T02:25:10.146Z,94047.00
2023-02-09T02:26:10.290Z,94043.00
2023-02-09T02:27:10.296Z,94048.00
2023-02-09T02:28:10.402Z,94041.00
2023-02-09T02:29:10.453Z,94039.00
2023-02-09T02:30:10.540Z,94045.00
2023-02-09T02:31:10.756Z,94037.00
2023-02-09T02:32:10.665Z,94035.00
2023-02-09T02:33:10.736Z,94039.00
2023-02-09T02:34:10.885Z,94048.00
2023-02-09T02:35:10.897Z,94043.00
2023-02-09T02:36:11.006Z,94031.00
2023-02-09T02:37:11.031Z,94029.00
2023-02-09T02:38:11.084Z,94037.00
2023-02-09T02:39:11.160Z,94035.00
2023-02-09T02:40:11.748Z,94037.00
2023-02-09T02:41:11.306Z,94033.00
2023-02-09T02:42:11.362Z,94025.00
2023-02-09T02:43:11.427Z,94029.00
2023-02-09T02:44:11.511Z,94027.00
2023-02-09T02:45:11.575Z,94019.00
2023-02-09T02:46:11.668Z,94019.00
2023-02-09T02:47:11.726Z,94025.00
2023-02-09T02:48:11.794Z,94027.00
2023-02-09T02:49:13.708Z,94019.00
2023-02-09T02:50:11.924Z,94019.00
2023-02-09T02:51:11.873Z,94017.00
2023-02-09T02:52:11.883Z,94019.00
2023-02-09T02:53:11.883Z,94019.00
2023-02-09T02:54:11.906Z,94029.00
2023-02-09T02:55:11.911Z,94025.00
2023-02-09T02:56:11.927Z,94021.00
2023-02-09T02:57:11.941Z,94023.00
2023-02-09T02:58:11.968Z,94023.00
2023-02-09T02:59:11.968Z,94027.00
2023-02-09T03:00:11.979Z,94029.00
2023-02-09T03:01:11.974Z,94027.00
2023-02-09T03:02:11.980Z,94029.00
2023-02-09T03:03:11.995Z,94021.00
2023-02-09T03:04:12.008Z,94025.00
2023-02-09T03:05:12.865Z,94025.00
2023-02-09T03:06:12.023Z,94023.00
2023-02-09T03:07:12.100Z,94019.00
2023-02-09T03:08:12.796Z,94017.00
2023-02-09T03:09:12.133Z,94021.00
2023-02-09T03:10:12.049Z,94021.00
2023-02-09T03:11:12.067Z,94025.00
2023-02-09T03:12:12.061Z,94031.00
2023-02-09T03:13:12.077Z,94027.00
2023-02-09T03:14:12.079Z,94027.00
2023-02-09T03:15:12.087Z,94031.00
2023-02-09T03:16:12.235Z,94023.00
2023-02-09T03:17:12.167Z,94021.00
2023-02-09T03:18:12.122Z,94025.00
2023-02-09T03:19:12.140Z,94023.00
2023-02-09T03:20:12.136Z,94029.00
2023-02-09T03:21:12.177Z,94031.00
2023-02-09T03:22:12.160Z,94033.00
2023-02-09T03:23:12.161Z,94031.00
2023-02-09T03:24:12.174Z,94033.00
2023-02-09T03:25:12.207Z,94029.00
2023-02-09T03:26:12.186Z,94029.00
2023-02-09T03:27:12.206Z,94033.00
2023-02-09T03:28:12.271Z,94033.00
2023-02-09T03:29:12.293Z,94033.00
2023-02-09T03:30:12.218Z,94031.00
2023-02-09T03:31:12.461Z,94025.00
2023-02-09T03:32:12.315Z,94025.00
2023-02-09T03:33:12.233Z,94025.00
2023-02-09T04:23:15.078Z,94029.00
2023-02-09T04:24:15.173Z,94031.00
2023-02-09T04:25:15.787Z,94033.00
2023-02-09T04:26:15.261Z,94025.00
2023-02-09T04:27:15.330Z,94033.00
2023-02-09T04:28:15.511Z,94029.00
2023-02-09T04:29:15.452Z,94023.00
2023-02-09T04:30:15.518Z,94027.00
2023-02-09T04:31:15.698Z,94023.00
2023-02-09T04:32:15.624Z,94027.00
2023-02-09T04:33:15.710Z,94025.00
2023-02-09T04:34:15.766Z,94027.00
2023-02-09T04:35:15.811Z,94023.00
2023-02-09T04:36:15.871Z,94027.00
2023-02-09T04:37:15.943Z,94029.00
2023-02-09T04:38:15.993Z,94029.00
2023-02-09T04:39:16.061Z,94027.00
2023-02-09T04:40:16.148Z,94027.00
2023-02-09T04:41:16.187Z,94021.00
2023-02-09T04:42:16.256Z,94029.00
2023-02-09T04:43:16.322Z,94025.00
2023-02-09T04:44:16.386Z,94035.00
2023-02-09T04:45:16.459Z,94035.00
2023-02-09T04:46:16.653Z,94033.00
2023-02-09T04:47:16.588Z,94029.00
2023-02-09T04:48:16.644Z,94029.00
2023-02-09T04:49:16.707Z,94029.00
2023-02-09T04:50:16.779Z,94027.00
2023-02-09T04:51:16.853Z,94035.00
2023-02-09T04:52:16.913Z,94037.00
2023-02-09T04:53:17.002Z,94037.00
2023-02-09T04:54:17.147Z,94037.00
2023-02-09T04:55:17.139Z,94037.00
2023-02-09T04:56:17.242Z,94037.00
2023-02-09T04:57:17.270Z,94033.00
2023-02-09T04:58:17.330Z,94045.00
2023-02-09T04:59:17.406Z,94025.00
2023-02-09T05:00:17.484Z,94029.00
2023-02-09T05:01:17.639Z,94035.00
2023-02-09T05:02:17.630Z,94029.00
2023-02-09T05:03:17.720Z,94029.00
2023-02-09T05:04:17.774Z,94031.00
2023-02-09T05:05:17.824Z,94035.00
2023-02-09T05:06:17.931Z,94041.00
2023-02-09T05:07:17.972Z,94037.00
2023-02-09T05:08:18.043Z,94037.00
2023-02-09T05:09:18.119Z,94039.00
2023-02-09T05:10:18.170Z,94035.00
2023-02-09T05:11:18.253Z,94035.00
2023-02-09T05:12:18.317Z,94041.00
2023-02-09T05:13:18.466Z,94041.00
2023-02-09T06:42:25.824Z,94160.00
2023-02-09T06:45:25.343Z,94152.00
2023-02-09T06:49:25.960Z,94152.00
2023-02-09T06:50:25.280Z,94156.00
2023-02-09T06:51:25.352Z,94154.00
2023-02-09T06:52:25.425Z,94158.00
2023-02-09T06:53:25.477Z,94154.00
2023-02-09T06:54:25.521Z,94156.00
2023-02-09T06:55:25.576Z,94158.00
2023-02-09T06:56:25.631Z,94154.00
2023-02-09T06:57:26.424Z,94152.00
2023-02-09T06:58:25.690Z,94154.00
2023-02-09T06:59:25.781Z,94154.00
2023-02-09T07:00:25.848Z,94156.00
2023-02-09T07:01:25.974Z,94148.00
2023-02-09T07:02:26.041Z,94148.00
2023-02-09T07:03:26.022Z,94152.00
2023-02-09T07:04:26.067Z,94156.00
2023-02-09T07:05:26.106Z,94154.00
2023-02-09T07:06:26.197Z,94156.00
2023-02-09T07:07:26.283Z,94150.00
2023-02-09T07:08:26.339Z,94152.00
2023-02-09T07:09:26.418Z,94156.00
2023-02-09T07:10:26.497Z,94156.00
2023-02-09T07:11:26.571Z,94154.00
2023-02-09T07:12:26.652Z,94158.00
2023-02-09T07:13:26.707Z,94154.00
2023-02-09T07:14:26.811Z,94152.00
2023-02-09T07:15:27.355Z,94148.00
2023-02-09T07:16:27.065Z,94152.00
2023-02-09T07:17:27.100Z,94148.00
2023-02-09T07:18:27.258Z,94148.00
2023-02-09T07:19:27.371Z,94154.00
2023-02-09T07:20:27.457Z,94152.00
2023-02-09T07:21:27.598Z,94154.00
2023-02-09T07:22:27.668Z,94160.00
2023-02-09T07:23:27.755Z,94156.00
2023-02-09T07:24:27.820Z,94158.00
2023-02-09T07:25:27.902Z,94156.00
2023-02-09T07:26:28.865Z,94158.00
2023-02-09T07:27:28.118Z,94158.00
2023-02-09T07:28:28.213Z,94160.00
2023-02-09T07:29:28.225Z,94168.00
2023-02-09T07:30:28.465Z,94168.00
2023-02-09T07:31:28.492Z,94166.00
2023-02-09T07:32:28.499Z,94166.00
2023-02-09T07:33:28.550Z,94166.00
2023-02-09T07:34:29.282Z,94170.00
2023-02-09T07:35:28.622Z,94172.00
2023-02-09T07:36:29.440Z,94170.00
2023-02-09T07:37:28.704Z,94166.00
2023-02-09T07:38:28.776Z,94166.00
2023-02-09T07:39:28.906Z,94174.00
2023-02-09T07:40:28.917Z,94172.00
2023-02-09T07:41:29.007Z,94174.00
2023-02-09T07:42:29.080Z,94172.00
2023-02-09T07:43:29.144Z,94172.00
2023-02-09T07:44:29.216Z,94178.00
2023-02-09T07:45:29.270Z,94182.00
2023-02-09T07:46:29.345Z,94186.00
2023-02-09T07:47:29.370Z,94190.00
2023-02-09T07:48:29.410Z,94182.00
2023-02-09T07:49:29.537Z,94182.00
2023-02-09T07:50:30.334Z,94188.00
2023-02-09T07:51:29.529Z,94184.00
2023-02-09T07:52:30.369Z,94180.00
2023-02-09T07:53:30.582Z,94184.00
2023-02-09T07:54:29.563Z,94182.00
2023-02-09T07:55:29.580Z,94184.00
2023-02-09T07:56:29.595Z,94184.00
2023-02-09T07:57:29.579Z,94190.00
2023-02-09T07:58:30.288Z,94193.00
2023-02-09T07:59:29.666Z,94190.00
2023-02-09T08:00:29.589Z,94188.00
2023-02-09T08:01:29.624Z,94190.00
2023-02-09T08:02:29.624Z,94190.00
2023-02-09T08:03:29.614Z,94193.00
2023-02-09T08:04:29.615Z,94195.00
2023-02-09T08:05:29.679Z,94195.00
2023-02-09T08:06:40.942Z,94193.00
2023-02-09T08:07:30.637Z,94195.00
2023-02-09T08:08:29.722Z,94193.00
2023-02-09T08:09:29.640Z,94191.00
2023-02-09T08:10:29.634Z,94190.00
2023-02-09T08:11:29.709Z,94193.00
2023-02-09T08:12:29.634Z,94199.00
2023-02-09T08:13:29.687Z,94199.00
2023-02-09T08:14:29.627Z,94193.00
2023-02-09T08:15:29.633Z,94193.00
2023-02-09T08:16:30.675Z,94193.00
2023-02-09T08:17:29.621Z,94199.00
2023-02-09T08:18:29.615Z,94197.00
2023-02-09T08:19:29.613Z,94193.00
2023-02-09T08:20:29.633Z,94193.00
2023-02-09T08:21:29.625Z,94195.00
2023-02-09T08:22:29.619Z,94182.00
2023-02-09T08:23:29.658Z,94182.00
2023-02-09T08:24:30.450Z,94184.00
2023-02-09T08:25:30.392Z,94188.00
2023-02-09T08:26:29.619Z,94191.00
2023-02-09T08:27:30.308Z,94195.00
2023-02-09T08:28:43.308Z,94195.00
2023-02-09T08:29:31.375Z,94182.00
2023-02-09T08:30:30.808Z,94190.00
2023-02-09T08:31:30.067Z,94190.00
2023-02-09T08:32:29.984Z,94182.00
2023-02-09T08:33:30.023Z,94182.00
2023-02-09T08:34:30.103Z,94180.00
2023-02-09T08:35:30.874Z,94178.00
2023-02-09T08:36:30.882Z,94174.00
2023-02-09T08:37:30.337Z,94170.00
2023-02-09T08:38:30.421Z,94176.00
2023-02-09T08:39:30.489Z,94174.00
2023-02-09T08:40:30.544Z,94172.00
2023-02-09T08:41:31.307Z,94176.00
2023-02-09T08:42:30.673Z,94172.00
2023-02-09T08:43:30.790Z,94168.00
2023-02-09T08:44:30.777Z,94174.00
2023-02-09T08:45:30.977Z,94168.00
2023-02-09T08:46:31.173Z,94166.00
2023-02-09T08:47:30.911Z,94168.00
2023-02-09T08:48:30.972Z,94166.00
2023-02-09T08:49:30.971Z,94160.00
2023-02-09T08:50:31.013Z,94164.00
2023-02-09T08:51:31.124Z,94158.00
2023-02-09T08:52:31.827Z,94158.00
2023-02-09T08:53:31.149Z,94154.00
2023-02-09T08:54:31.138Z,94156.00
2023-02-09T08:55:31.174Z,94158.00
2023-02-09T08:56:31.313Z,94150.00
2023-02-09T08:57:43.157Z,94150.00
2023-02-09T08:58:32.170Z,94148.00
2023-02-09T08:59:31.181Z,94146.00
2023-02-09T09:00:31.156Z,94146.00
2023-02-09T09:01:31.239Z,94146.00
2023-02-09T09:02:31.177Z,94146.00
2023-02-09T09:03:31.236Z,94146.00
2023-02-09T09:04:31.160Z,94144.00
2023-02-09T09:05:32.241Z,94142.00
2023-02-09T09:06:31.171Z,94148.00
2023-02-09T09:07:31.188Z,94142.00
2023-02-09T09:08:31.193Z,94144.00
2023-02-09T09:09:31.291Z,94140.00
2023-02-09T09:10:31.310Z,94139.00
2023-02-09T09:11:31.341Z,94139.00
2023-02-09T09:12:31.370Z,94142.00
2023-02-09T09:13:31.404Z,94131.00
2023-02-09T09:14:31.462Z,94135.00
2023-02-09T10:00:32.820Z,94135.00
2023-02-09T10:01:32.853Z,94133.00
2023-02-09T10:03:32.789Z,94133.00
2023-02-09T10:04:32.839Z,94135.00
2023-02-09T10:06:32.781Z,94133.00
2023-02-09T10:09:32.729Z,94144.00
2023-02-09T10:10:32.726Z,94142.00
2023-02-09T10:11:32.698Z,94146.00
2023-02-09T10:36:32.429Z,94109.00
2023-02-09T10:52:32.360Z,94090.00
2023-02-09T11:04:32.357Z,94060.00
2023-02-09T12:26:34.213Z,93939.00
2023-02-09T12:27:34.185Z,93935.00
2023-02-09T12:29:34.131Z,93935.00
2023-02-09T12:37:33.966Z,93919.00
2023-02-09T13:20:35.009Z,93874.00
2023-02-09T13:30:35.243Z,93860.00
2023-02-09T13:31:35.277Z,93858.00
2023-02-09T13:32:35.189Z,93856.00
2023-02-09T13:33:35.228Z,93858.00
2023-02-09T13:34:35.232Z,93858.00
2023-02-09T13:35:36.014Z,93858.00
2023-02-09T13:36:35.260Z,93856.00
2023-02-09T13:37:35.348Z,93854.00
2023-02-09T13:38:35.310Z,93858.00
2023-02-09T13:39:35.309Z,93854.00
2023-02-09T13:40:35.456Z,93853.00
2023-02-09T13:41:35.384Z,93851.00
2023-02-09T13:42:35.358Z,93851.00
2023-02-09T13:43:35.383Z,93849.00
2023-02-09T13:44:35.397Z,93849.00
2023-02-09T13:45:35.436Z,93847.00
2023-02-09T13:46:35.551Z,93847.00
2023-02-09T13:47:35.470Z,93849.00
2023-02-09T13:48:35.495Z,93849.00
2023-02-09T13:49:35.522Z,93849.00
2023-02-09T13:50:35.548Z,93849.00
2023-02-09T13:51:35.576Z,93847.00
2023-02-09T13:52:38.646Z,93847.00
2023-02-09T13:53:35.574Z,93847.00
2023-02-09T13:54:35.524Z,93847.00
2023-02-09T13:55:35.479Z,93847.00
2023-02-09T13:56:35.441Z,93845.00
2023-02-09T13:57:35.417Z,93841.00
2023-02-09T13:58:35.545Z,93841.00
2023-02-09T13:59:35.407Z,93843.00
2023-02-09T14:00:35.267Z,93841.00
2023-02-09T14:01:35.249Z,93841.00
2023-02-09T14:02:35.190Z,93843.00
2023-02-09T14:03:35.158Z,93841.00
2023-02-09T14:04:35.132Z,93839.00
2023-02-09T14:05:35.097Z,93841.00
2023-02-09T14:06:35.038Z,93841.00
2023-02-09T14:07:34.981Z,93841.00
2023-02-09T14:08:34.936Z,93843.00
2023-02-09T14:09:34.919Z,93841.00
2023-02-09T14:10:35.506Z,93837.00
2023-02-09T14:11:42.206Z,93839.00
2023-02-09T14:12:35.767Z,93841.00
2023-02-09T14:13:34.741Z,93841.00
2023-02-09T14:14:34.690Z,93841.00
2023-02-09T14:15:34.651Z,93845.00
2023-02-09T14:16:44.637Z,93845.00
2023-02-09T14:17:35.624Z,93843.00
2023-02-09T14:18:34.535Z,93843.00
2023-02-09T14:19:34.556Z,93843.00
2023-02-09T14:20:34.458Z,93845.00
2023-02-09T14:21:34.431Z,93849.00
2023-02-09T14:22:34.395Z,93847.00
2023-02-09T14:23:34.418Z,93845.00
2023-02-09T14:24:34.361Z,93849.00
2023-02-09T14:25:34.286Z,93849.00
2023-02-09T14:26:34.382Z,93851.00
2023-02-09T14:27:34.219Z,93847.00
2023-02-09T14:28:34.251Z,93849.00
2023-02-09T14:29:34.512Z,93849.00
2023-02-09T14:30:34.177Z,93849.00
2023-02-09T14:31:34.085Z,93849.00
2023-02-09T14:32:34.110Z,93853.00
2023-02-09T14:33:34.142Z,93851.00
2023-02-09T14:34:34.177Z,93847.00
2023-02-09T14:35:34.192Z,93845.00
2023-02-09T14:36:34.231Z,93849.00
2023-02-09T14:37:34.275Z,93847.00
2023-02-09T14:38:34.306Z,93845.00
2023-02-09T14:39:34.373Z,93845.00
2023-02-09T14:40:34.442Z,93847.00
2023-02-09T14:41:34.421Z,93845.00
2023-02-09T14:42:34.473Z,93845.00
2023-02-09T14:43:34.506Z,93847.00
2023-02-09T14:44:34.636Z,93847.00
2023-02-09T14:45:35.559Z,93847.00
2023-02-09T14:46:34.551Z,93847.00
2023-02-09T14:47:34.497Z,93847.00
2023-02-09T14:48:34.470Z,93847.00
2023-02-09T14:49:34.435Z,93847.00
2023-02-09T14:50:34.412Z,93845.00
2023-02-09T14:51:34.389Z,93845.00
2023-02-09T14:52:34.430Z,93847.00
2023-02-09T14:53:34.474Z,93847.00
2023-02-09T14:54:34.514Z,93849.00
2023-02-09T14:55:34.527Z,93851.00
2023-02-09T14:56:34.578Z,93853.00
2023-02-09T14:57:34.531Z,93851.00
2023-02-09T14:58:34.533Z,93851.00
2023-02-09T14:59:34.569Z,93849.00
2023-02-09T15:00:34.509Z,93847.00
2023-02-09T15:01:34.536Z,93849.00
2023-02-09T15:02:34.521Z,93853.00
2023-02-09T15:03:34.467Z,93853.00
2023-02-09T15:04:34.452Z,93851.00
2023-02-09T15:05:35.029Z,93856.00
2023-02-09T15:06:34.411Z,93854.00
2023-02-09T15:07:34.416Z,93858.00
2023-02-09T15:08:34.428Z,93858.00
2023-02-09T15:09:34.414Z,93856.00
2023-02-09T15:10:34.418Z,93860.00
2023-02-09T15:11:34.470Z,93858.00
2023-02-09T15:12:34.421Z,93868.00
2023-02-09T15:13:34.427Z,93868.00
2023-02-09T15:14:34.434Z,93870.00
2023-02-09T15:15:34.503Z,93868.00
2023-02-09T15:16:34.458Z,93872.00
2023-02-09T15:17:34.490Z,93872.00
2023-02-09T15:18:34.481Z,93874.00
2023-02-09T15:19:34.477Z,93880.00
2023-02-09T15:20:35.042Z,93880.00
2023-02-09T15:21:34.520Z,93876.00
2023-02-09T15:22:34.524Z,93878.00
2023-02-09T15:23:34.562Z,93878.00
2023-02-09T15:24:34.572Z,93880.00
2023-02-09T15:25:34.668Z,93878.00
2023-02-09T15:26:34.625Z,93880.00
2023-02-09T15:27:34.647Z,93880.00
2023-02-09T15:28:34.732Z,93882.00
2023-02-09T15:29:34.719Z,93888.00
2023-02-09T15:30:34.764Z,93886.00
2023-02-09T15:31:34.810Z,93888.00
2023-02-09T15:32:34.825Z,93886.00
2023-02-09T15:33:34.860Z,93890.00
2023-02-09T15:34:34.900Z,93884.00
2023-02-09T15:35:34.960Z,93886.00
2023-02-09T15:36:34.977Z,93890.00
2023-02-09T15:37:35.016Z,93890.00
2023-02-09T15:38:35.069Z,93892.00
2023-02-09T15:39:35.109Z,93898.00
2023-02-09T15:40:35.158Z,93898.00
2023-02-09T15:41:36.350Z,93899.00
2023-02-09T15:42:35.248Z,93903.00
2023-02-09T15:43:35.302Z,93901.00
2023-02-09T15:44:35.352Z,93905.00
2023-02-09T15:45:35.403Z,93907.00
2023-02-09T15:46:35.480Z,93907.00
2023-02-09T15:47:35.526Z,93907.00
2023-02-09T15:48:35.571Z,93907.00
2023-02-09T15:49:35.633Z,93907.00
2023-02-09T15:50:35.689Z,93909.00
2023-02-09T15:51:35.774Z,93913.00
2023-02-09T15:52:35.827Z,93915.00
2023-02-09T15:53:35.895Z,93921.00
2023-02-09T15:54:35.976Z,93921.00
2023-02-09T15:55:36.019Z,93925.00
2023-02-09T15:56:36.106Z,93927.00
2023-02-09T15:57:36.156Z,93923.00
2023-02-09T15:58:36.268Z,93927.00
2023-02-09T15:59:36.561Z,93925.00
2023-02-09T16:00:36.357Z,93927.00
2023-02-09T16:01:36.453Z,93927.00
2023-02-09T16:02:36.615Z,93929.00
2023-02-09T16:03:36.527Z,93933.00
2023-02-09T16:04:36.604Z,93931.00
2023-02-09T16:05:36.651Z,93935.00
2023-02-09T16:06:36.727Z,93935.00
2023-02-09T16:07:36.760Z,93937.00
2023-02-09T16:08:37.054Z,93937.00
2023-02-09T16:09:36.837Z,93941.00
2023-02-09T16:10:36.843Z,93948.00
2023-02-09T16:11:36.856Z,93950.00
2023-02-09T16:12:36.905Z,93952.00
2023-02-09T16:13:36.937Z,93954.00
2023-02-09T16:14:36.924Z,93954.00
2023-02-09T16:15:36.951Z,93960.00
2023-02-09T16:16:37.070Z,93962.00
2023-02-09T16:17:37.000Z,93966.00
2023-02-09T16:18:37.032Z,93968.00
2023-02-09T16:19:37.043Z,93968.00
2023-02-09T16:20:37.057Z,93970.00
2023-02-09T16:21:37.095Z,93970.00
2023-02-09T16:23:37.088Z,93970.00
2023-02-09T16:24:38.059Z,93970.00
2023-02-09T16:25:37.184Z,93970.00
2023-02-09T16:26:37.096Z,93972.00
2023-02-09T16:27:37.116Z,93968.00
2023-02-09T16:28:37.135Z,93972.00
2023-02-09T16:29:37.180Z,93974.00
2023-02-09T16:30:37.153Z,93974.00
2023-02-09T16:31:37.239Z,93978.00
2023-02-09T16:32:37.175Z,93980.00
2023-02-09T16:33:37.198Z,93982.00
2023-02-09T16:34:37.197Z,93984.00
2023-02-09T16:35:37.212Z,93984.00
2023-02-09T16:57:37.806Z,94021.00
2023-02-09T17:08:38.161Z,94041.00
2023-02-09T17:20:38.616Z,94052.00
2023-02-09T19:42:45.157Z,94254.00
2023-02-09T19:43:45.216Z,94252.00
2023-02-09T19:44:45.268Z,94252.00
2023-02-09T19:45:45.624Z,94250.00
2023-02-09T19:46:45.471Z,94248.00
2023-02-09T19:47:45.422Z,94246.00
2023-02-09T19:48:45.462Z,94248.00
2023-02-09T19:49:45.512Z,94246.00
2023-02-09T19:50:45.565Z,94250.00
2023-02-09T19:51:45.611Z,94252.00
2023-02-09T19:52:45.728Z,94254.00
2023-02-09T19:53:45.708Z,94256.00
2023-02-09T19:54:45.756Z,94258.00
2023-02-09T19:55:46.031Z,94256.00
2023-02-09T19:56:45.856Z,94262.00
2023-02-09T19:57:45.897Z,94258.00
2023-02-09T19:58:45.959Z,94262.00
2023-02-09T19:59:46.017Z,94262.00
2023-02-09T20:00:46.069Z,94264.00
2023-02-09T20:01:46.138Z,94266.00
2023-02-09T20:02:46.264Z,94266.00
2023-02-09T20:04:46.284Z,94270.00
2023-02-09T20:05:46.657Z,94270.00
2023-02-09T20:06:46.370Z,94274.00
2023-02-09T20:07:46.438Z,94274.00
2023-02-09T20:09:46.561Z,94274.00
2023-02-09T20:10:46.944Z,94276.00
2023-02-09T20:11:46.643Z,94278.00
2023-02-09T20:12:46.732Z,94276.00
2023-02-09T20:13:46.828Z,94276.00
2023-02-09T20:14:46.828Z,94276.00
2023-02-09T20:15:47.134Z,94274.00
2023-02-09T20:16:47.029Z,94274.00
2023-02-09T22:20:55.496Z,94297.00
